createdAt,value
2022-11-15T00:00:31.935Z,92.53
2022-11-15T00:02:58.363Z,92.92
2022-11-15T00:05:25.077Z,92.42
2022-11-15T00:07:56.171Z,92.51
2022-11-15T00:10:22.849Z,92.50
2022-11-15T00:12:49.332Z,91.88
2022-11-15T00:15:15.834Z,92.01
2022-11-15T00:17:42.304Z,93.04
2022-11-15T00:20:09.281Z,92.29
2022-11-15T00:22:35.746Z,92.22
2022-11-15T00:25:02.234Z,93.10
2022-11-15T00:27:28.728Z,93.08
2022-11-15T00:29:55.199Z,92.61
2022-11-15T00:32:21.708Z,92.50
2022-11-15T00:34:48.150Z,92.47
2022-11-15T00:37:14.592Z,91.88
2022-11-15T00:39:41.039Z,92.05
2022-11-15T00:42:07.472Z,91.12
2022-11-15T00:44:34.347Z,91.11
2022-11-15T00:47:00.821Z,90.86
2022-11-15T00:49:27.248Z,90.42
2022-11-15T00:51:53.680Z,90.21
2022-11-15T00:54:20.103Z,90.65
2022-11-15T00:56:46.720Z,90.56
2022-11-15T00:59:13.200Z,90.59
2022-11-15T01:01:39.631Z,90.64
2022-11-15T01:04:06.138Z,91.40
2022-11-15T01:06:32.587Z,91.11
2022-11-15T01:08:59.027Z,91.36
2022-11-15T01:11:25.447Z,91.94
2022-11-15T01:13:51.854Z,91.46
2022-11-15T01:16:19.509Z,91.36
2022-11-15T01:18:46.743Z,92.59
2022-11-15T01:21:18.282Z,92.38
2022-11-15T01:23:45.811Z,91.78
2022-11-15T01:26:14.974Z,91.75
2022-11-15T01:28:42.657Z,91.42
2022-11-15T01:31:18.570Z,91.54
2022-11-15T01:33:45.813Z,90.96
2022-11-15T01:36:15.111Z,90.91
2022-11-15T01:38:42.005Z,91.23
2022-11-15T01:41:16.668Z,92.57
2022-11-15T01:43:43.156Z,92.79
2022-11-15T01:46:22.832Z,92.67
2022-11-15T01:48:52.671Z,92.07
2022-11-15T01:51:21.024Z,91.89
2022-11-15T01:53:52.606Z,91.86
2022-11-15T01:56:26.780Z,92.16
2022-11-15T01:58:56.384Z,92.21
2022-11-15T02:01:25.406Z,92.49
2022-11-15T02:04:01.732Z,92.96
2022-11-15T02:06:28.198Z,92.35
2022-11-15T02:08:57.302Z,92.35
2022-11-15T02:11:23.760Z,92.24
2022-11-15T02:13:50.353Z,92.07
2022-11-15T02:16:35.176Z,92.13
2022-11-15T02:19:13.800Z,93.18
2022-11-15T02:22:05.020Z,97.23
2022-11-15T02:25:09.987Z,98.80
2022-11-15T02:28:08.740Z,96.70
2022-11-15T02:30:42.860Z,97.29
2022-11-15T02:33:20.031Z,98.51
2022-11-15T02:36:00.642Z,98.05
2022-11-15T02:38:51.337Z,97.91
2022-11-15T02:41:44.506Z,97.35
2022-11-15T02:44:27.671Z,95.94
2022-11-15T02:47:14.152Z,96.18
2022-11-15T02:49:44.540Z,94.89
2022-11-15T02:52:16.189Z,94.13
2022-11-15T02:54:42.619Z,93.80
2022-11-15T02:57:16.569Z,95.27
2022-11-15T02:59:52.063Z,94.34
2022-11-15T03:03:03.612Z,95.27
2022-11-15T03:05:40.291Z,96.28
2022-11-15T03:08:31.895Z,96.85
2022-11-15T03:11:14.548Z,97.58
2022-11-15T03:14:10.158Z,96.87
2022-11-15T03:16:58.884Z,95.97
2022-11-15T03:19:55.132Z,96.31
2022-11-15T03:22:25.599Z,98.18
2022-11-15T03:24:56.947Z,96.74
2022-11-15T03:27:29.340Z,97.23
2022-11-15T03:30:00.585Z,96.19
2022-11-15T03:32:30.979Z,96.11
2022-11-15T03:35:03.224Z,95.60
2022-11-15T03:38:01.028Z,95.55
2022-11-15T03:40:38.421Z,95.28
2022-11-15T03:43:11.469Z,94.90
2022-11-15T03:45:47.572Z,94.06
2022-11-15T03:48:25.496Z,94.10
2022-11-15T03:50:52.801Z,93.06
2022-11-15T03:53:19.232Z,93.33
2022-11-15T03:55:45.689Z,92.98
2022-11-15T03:58:12.147Z,93.04
2022-11-15T04:00:38.595Z,92.29
2022-11-15T04:03:05.043Z,92.30
2022-11-15T04:05:31.501Z,92.42
2022-11-15T04:07:57.962Z,92.34
2022-11-15T04:10:24.506Z,92.37
2022-11-15T04:12:51.064Z,92.21
2022-11-15T04:15:20.479Z,92.04
2022-11-15T04:17:52.597Z,91.99
2022-11-15T04:20:39.073Z,91.70
2022-11-15T04:23:26.663Z,91.60
2022-11-15T04:25:54.981Z,91.46
2022-11-15T04:28:22.284Z,91.16
2022-11-15T04:30:48.939Z,91.11
2022-11-15T04:33:15.885Z,91.12
2022-11-15T04:35:43.134Z,90.89
2022-11-15T04:38:11.588Z,90.62
2022-11-15T04:40:38.578Z,90.39
2022-11-15T04:43:05.334Z,89.99
2022-11-15T04:45:31.771Z,90.01
2022-11-15T04:47:58.268Z,89.86
2022-11-15T04:50:24.676Z,89.74
2022-11-15T04:52:53.587Z,89.58
2022-11-15T04:55:20.457Z,89.35
2022-11-15T04:57:46.945Z,89.44
2022-11-15T05:00:16.012Z,89.13
2022-11-15T05:03:00.837Z,89.43
2022-11-15T05:05:27.275Z,88.99
2022-11-15T05:07:53.796Z,89.09
2022-11-15T05:10:20.199Z,89.16
2022-11-15T05:12:47.762Z,89.16
2022-11-15T05:15:14.272Z,88.83
2022-11-15T05:17:40.751Z,89.04
2022-11-15T05:20:07.831Z,88.74
2022-11-15T05:22:34.264Z,88.58
2022-11-15T05:25:00.753Z,88.96
2022-11-15T05:27:27.209Z,88.72
2022-11-15T05:29:53.702Z,88.68
2022-11-15T05:32:20.119Z,88.49
2022-11-15T05:34:46.707Z,88.74
2022-11-15T05:37:14.935Z,88.52
2022-11-15T05:39:41.353Z,88.75
2022-11-15T05:42:14.018Z,88.66
2022-11-15T05:44:45.467Z,88.32
2022-11-15T05:47:16.705Z,88.60
2022-11-15T05:49:45.470Z,88.42
2022-11-15T05:52:16.530Z,88.37
2022-11-15T05:54:43.691Z,88.47
2022-11-15T05:57:10.441Z,88.64
2022-11-15T05:59:37.505Z,88.15
2022-11-15T06:02:04.146Z,88.06
2022-11-15T06:04:30.723Z,88.22
2022-11-15T06:06:59.736Z,87.82
2022-11-15T06:09:26.263Z,87.76
2022-11-15T06:11:52.690Z,87.74
2022-11-15T06:14:19.142Z,86.99
2022-11-15T06:16:45.540Z,87.35
2022-11-15T06:19:12.039Z,87.22
2022-11-15T06:21:38.506Z,87.26
2022-11-15T06:24:06.511Z,87.28
2022-11-15T06:26:33.135Z,86.96
2022-11-15T06:28:59.626Z,87.16
2022-11-15T06:31:26.054Z,87.56
2022-11-15T06:33:52.501Z,87.20
2022-11-15T06:36:19.017Z,87.38
2022-11-15T06:38:46.123Z,87.28
2022-11-15T06:41:14.284Z,87.61
2022-11-15T06:43:41.331Z,87.55
2022-11-15T06:46:08.777Z,87.47
2022-11-15T06:48:35.618Z,87.38
2022-11-15T06:51:03.808Z,86.55
2022-11-15T06:53:32.267Z,86.53
2022-11-15T06:56:03.951Z,86.38
2022-11-15T06:58:30.445Z,86.04
2022-11-15T07:01:09.528Z,85.90
2022-11-15T07:03:37.847Z,85.69
2022-11-15T07:06:07.404Z,85.63
2022-11-15T07:08:35.874Z,85.41
2022-11-15T07:11:06.231Z,85.29
2022-11-15T07:13:37.003Z,85.52
2022-11-15T07:16:09.013Z,85.37
2022-11-15T07:18:36.800Z,84.85
2022-11-15T07:21:05.679Z,84.77
2022-11-15T07:23:32.823Z,85.25
2022-11-15T07:25:59.889Z,84.94
2022-11-15T07:28:27.538Z,85.33
2022-11-15T07:30:54.367Z,85.53
2022-11-15T07:33:20.854Z,85.75
2022-11-15T07:35:50.508Z,85.73
2022-11-15T07:38:20.509Z,85.62
2022-11-15T07:40:47.709Z,85.88
2022-11-15T07:43:14.380Z,85.42
2022-11-15T07:45:45.799Z,85.19
2022-11-15T07:48:12.632Z,84.68
2022-11-15T07:50:43.192Z,84.17
2022-11-15T07:53:10.204Z,84.00
2022-11-15T07:55:37.176Z,84.14
2022-11-15T07:58:05.647Z,84.00
2022-11-15T08:00:33.000Z,84.01
2022-11-15T08:03:14.194Z,84.23
2022-11-15T08:05:42.289Z,84.17
2022-11-15T08:08:10.958Z,84.08
2022-11-15T08:10:40.815Z,84.27
2022-11-15T08:13:09.414Z,84.03
2022-11-15T08:15:37.240Z,83.92
2022-11-15T08:18:12.489Z,83.41
2022-11-15T08:20:39.129Z,83.87
2022-11-15T08:23:06.532Z,82.36
2022-11-15T08:25:34.955Z,82.27
2022-11-15T08:28:04.119Z,82.54
2022-11-15T08:30:31.687Z,80.99
2022-11-15T08:32:59.753Z,80.66
2022-11-15T08:35:29.004Z,79.09
2022-11-15T08:37:55.957Z,78.49
2022-11-15T08:40:23.674Z,78.68
2022-11-15T08:42:50.213Z,77.41
2022-11-15T08:45:16.675Z,76.42
2022-11-15T08:47:43.171Z,75.82
2022-11-15T08:50:09.887Z,75.85
2022-11-15T08:52:36.384Z,75.44
2022-11-15T08:55:02.870Z,75.01
2022-11-15T08:57:31.266Z,75.72
2022-11-15T08:59:58.542Z,74.68
2022-11-15T09:02:25.135Z,75.03
2022-11-15T09:04:51.686Z,76.79
2022-11-15T09:07:18.569Z,76.87
2022-11-15T09:09:45.211Z,76.05
2022-11-15T09:12:11.819Z,77.28
2022-11-15T09:14:38.707Z,75.17
2022-11-15T09:17:09.533Z,76.70
2022-11-15T09:19:36.056Z,75.10
2022-11-15T09:22:02.578Z,75.72
2022-11-15T09:24:29.070Z,76.72
2022-11-15T09:26:55.481Z,76.16
2022-11-15T09:29:21.974Z,75.14
2022-11-15T09:31:48.438Z,70.16
2022-11-15T09:34:14.952Z,71.30
2022-11-15T09:36:41.428Z,69.57
2022-11-15T09:39:07.910Z,69.69
2022-11-15T09:41:59.510Z,70.76
2022-11-15T09:44:54.346Z,70.46
2022-11-15T09:47:29.730Z,69.52
2022-11-15T09:49:59.579Z,69.45
2022-11-15T09:52:26.080Z,67.68
2022-11-15T09:54:55.582Z,69.49
2022-11-15T09:57:38.865Z,67.38
2022-11-15T10:00:44.613Z,68.33
2022-11-15T10:03:34.539Z,67.88
2022-11-15T10:06:06.319Z,68.25
2022-11-15T10:08:38.772Z,66.48
2022-11-15T10:14:02.439Z,65.52
2022-11-15T10:16:31.923Z,65.04
2022-11-15T10:19:13.732Z,64.97
2022-11-15T10:22:15.740Z,64.97
2022-11-15T10:24:46.029Z,65.74
2022-11-15T10:27:18.228Z,65.02
2022-11-15T10:29:50.196Z,65.59
2022-11-15T10:32:21.278Z,65.37
2022-11-15T10:34:49.563Z,64.64
2022-11-15T10:37:28.034Z,63.93
2022-11-15T10:40:04.947Z,65.17
2022-11-15T10:42:31.482Z,64.53
2022-11-15T10:44:57.913Z,66.10
2022-11-15T10:47:37.787Z,64.89
2022-11-15T10:50:28.439Z,63.96
2022-11-15T10:52:55.098Z,65.93
2022-11-15T10:55:29.530Z,64.36
2022-11-15T10:58:02.475Z,63.45
2022-11-15T11:00:33.654Z,62.77
2022-11-15T11:03:08.054Z,62.02
2022-11-15T11:05:42.663Z,61.07
2022-11-15T11:08:15.420Z,62.82
2022-11-15T11:11:00.273Z,61.17
2022-11-15T11:13:38.393Z,61.14
2022-11-15T11:16:23.459Z,60.34
2022-11-15T11:18:55.839Z,58.44
2022-11-15T11:21:45.074Z,59.00
2022-11-15T11:24:30.283Z,59.33
2022-11-15T11:27:22.855Z,56.84
2022-11-15T11:30:09.081Z,56.50
2022-11-15T11:32:55.059Z,59.65
2022-11-15T11:35:34.679Z,58.52
2022-11-15T11:38:18.670Z,57.93
2022-11-15T11:41:00.455Z,58.08
2022-11-15T11:43:49.053Z,53.57
2022-11-15T11:46:18.513Z,51.76
2022-11-15T11:48:48.679Z,51.33
2022-11-15T11:51:25.535Z,57.60
2022-11-15T11:53:55.645Z,48.66
2022-11-15T11:56:44.467Z,49.25
2022-11-15T11:59:24.916Z,49.42
2022-11-15T12:01:51.836Z,50.53
2022-11-15T12:04:30.516Z,50.91
2022-11-15T12:07:04.633Z,52.17
2022-11-15T12:10:22.083Z,51.94
2022-11-15T12:12:57.667Z,51.89
2022-11-15T12:15:32.163Z,51.00
2022-11-15T12:18:01.179Z,54.53
2022-11-15T12:20:34.739Z,54.40
2022-11-15T12:23:04.724Z,53.75
2022-11-15T12:25:34.074Z,50.85
2022-11-15T12:28:09.589Z,50.56
2022-11-15T12:30:47.817Z,50.30
2022-11-15T12:33:38.131Z,48.99
2022-11-15T12:36:13.439Z,49.57
2022-11-15T12:38:57.008Z,51.24
2022-11-15T12:41:34.679Z,50.59
2022-11-15T12:44:02.326Z,51.59
2022-11-15T12:46:31.827Z,52.73
2022-11-15T12:49:12.659Z,51.88
2022-11-15T12:51:48.320Z,52.60
2022-11-15T12:54:23.961Z,53.81
2022-11-15T12:57:08.777Z,53.28
2022-11-15T13:00:05.170Z,54.18
2022-11-15T13:02:46.320Z,55.87
2022-11-15T13:05:19.315Z,55.49
2022-11-15T13:07:45.723Z,57.02
2022-11-15T13:10:14.948Z,57.04
2022-11-15T13:12:47.516Z,57.08
2022-11-15T13:15:13.924Z,56.72
2022-11-15T13:17:51.117Z,57.29
2022-11-15T13:20:17.532Z,58.96
2022-11-15T13:22:53.057Z,57.96
2022-11-15T13:25:24.528Z,59.04
2022-11-15T13:27:52.082Z,59.10
2022-11-15T13:30:25.855Z,59.16
2022-11-15T13:32:53.558Z,59.68
2022-11-15T13:35:33.134Z,59.94
2022-11-15T13:38:04.933Z,60.23
2022-11-15T13:40:37.718Z,60.54
2022-11-15T13:43:22.484Z,60.82
2022-11-15T13:46:31.935Z,61.22
2022-11-15T13:49:09.049Z,61.56
2022-11-15T13:51:44.618Z,61.52
2022-11-15T13:54:13.972Z,61.92
2022-11-15T13:56:44.952Z,61.98
2022-11-15T13:59:18.180Z,61.96
2022-11-15T14:01:44.879Z,62.29
2022-11-15T14:04:18.902Z,62.49
2022-11-15T14:06:49.290Z,62.34
2022-11-15T14:09:25.552Z,62.47
2022-11-15T14:11:57.303Z,62.67
2022-11-15T14:14:25.989Z,63.23
2022-11-15T14:16:55.001Z,63.76
2022-11-15T14:19:21.435Z,63.98
2022-11-15T14:22:15.933Z,64.51
2022-11-15T14:24:48.184Z,64.89
2022-11-15T14:27:17.698Z,65.10
2022-11-15T14:29:44.131Z,65.68
2022-11-15T14:32:17.519Z,66.09
2022-11-15T14:34:44.022Z,66.25
2022-11-15T14:37:27.417Z,66.22
2022-11-15T14:39:54.828Z,66.42
2022-11-15T14:42:22.953Z,66.58
2022-11-15T14:44:49.474Z,66.58
2022-11-15T14:47:15.965Z,66.94
2022-11-15T14:49:42.935Z,67.19
2022-11-15T14:52:31.816Z,67.59
2022-11-15T14:55:00.222Z,67.96
2022-11-15T14:57:26.735Z,68.56
2022-11-15T14:59:53.431Z,68.69
2022-11-15T15:02:22.610Z,68.70
2022-11-15T15:04:50.205Z,69.24
2022-11-15T15:07:17.687Z,69.72
2022-11-15T15:09:45.517Z,69.91
2022-11-15T15:12:24.411Z,70.75
2022-11-15T15:14:51.595Z,70.46
2022-11-15T15:17:18.461Z,70.84
2022-11-15T15:19:45.140Z,71.03
2022-11-15T15:22:17.348Z,70.97
2022-11-15T15:24:45.039Z,71.83
2022-11-15T15:27:11.898Z,71.39
2022-11-15T15:29:38.619Z,71.80
2022-11-15T15:32:06.359Z,71.75
2022-11-15T15:34:33.672Z,71.97
2022-11-15T15:37:23.879Z,72.03
2022-11-15T15:39:55.145Z,71.99
2022-11-15T15:42:23.133Z,71.70
2022-11-15T15:44:50.891Z,71.93
2022-11-15T15:47:22.283Z,71.42
2022-11-15T15:49:49.894Z,71.55
2022-11-15T15:52:16.835Z,71.88
2022-11-15T15:54:43.403Z,71.66
2022-11-15T15:57:13.399Z,71.99
2022-11-15T15:59:39.987Z,72.53
2022-11-15T16:02:07.483Z,72.40
2022-11-15T16:04:33.966Z,72.04
2022-11-15T16:07:01.669Z,72.21
2022-11-15T16:09:46.637Z,72.25
2022-11-15T16:12:13.103Z,73.00
2022-11-15T16:14:42.992Z,72.63
2022-11-15T16:17:20.233Z,72.77
2022-11-15T16:19:46.708Z,72.82
2022-11-15T16:22:13.318Z,72.87
2022-11-15T16:24:39.812Z,72.67
2022-11-15T16:27:06.380Z,72.97
2022-11-15T16:29:32.887Z,72.86
2022-11-15T16:31:59.354Z,72.60
2022-11-15T16:34:29.981Z,72.92
2022-11-15T16:36:57.539Z,73.13
2022-11-15T16:39:24.096Z,73.14
2022-11-15T16:41:50.622Z,73.67
2022-11-15T16:44:17.161Z,73.97
2022-11-15T16:46:43.910Z,73.51
2022-11-15T16:49:14.170Z,73.69
2022-11-15T16:51:42.016Z,73.74
2022-11-15T16:54:08.612Z,73.64
2022-11-15T16:56:35.078Z,73.88
2022-11-15T16:59:02.217Z,73.42
2022-11-15T17:01:33.909Z,73.33
2022-11-15T17:04:12.412Z,73.05
2022-11-15T17:06:40.766Z,73.14
2022-11-15T17:09:11.499Z,73.59
2022-11-15T17:11:37.980Z,73.28
2022-11-15T17:14:04.438Z,74.08
2022-11-15T17:16:31.032Z,74.03
2022-11-15T17:18:57.569Z,74.95
2022-11-15T17:21:24.137Z,75.13
2022-11-15T17:23:50.654Z,75.91
2022-11-15T17:26:29.626Z,75.56
2022-11-15T17:28:57.512Z,75.90
2022-11-15T17:31:25.303Z,76.16
2022-11-15T17:33:51.752Z,76.57
2022-11-15T17:36:18.497Z,77.29
2022-11-15T17:38:50.255Z,77.87
2022-11-15T17:41:16.955Z,78.46
2022-11-15T17:43:43.406Z,79.09
2022-11-15T17:46:15.817Z,79.64
2022-11-15T17:48:43.585Z,80.53
2022-11-15T17:51:15.363Z,81.23
2022-11-15T17:53:44.146Z,81.37
2022-11-15T17:56:13.308Z,81.70
2022-11-15T17:58:40.543Z,82.60
2022-11-15T18:01:28.946Z,83.48
2022-11-15T18:03:57.029Z,84.25
2022-11-15T18:06:24.839Z,84.38
2022-11-15T18:08:52.919Z,83.51
2022-11-15T18:11:22.091Z,86.02
2022-11-15T18:13:55.066Z,85.77
2022-11-15T18:16:26.008Z,86.25
2022-11-15T18:18:54.048Z,86.56
2022-11-15T18:21:21.855Z,86.81
2022-11-15T18:23:49.771Z,87.52
2022-11-15T18:26:17.945Z,88.77
2022-11-15T18:28:47.691Z,89.01
2022-11-15T18:31:22.665Z,89.28
2022-11-15T18:33:50.959Z,89.73
2022-11-15T18:36:25.356Z,90.91
2022-11-15T18:38:55.943Z,90.76
2022-11-15T18:41:25.398Z,92.02
2022-11-15T18:43:52.562Z,92.76
2022-11-15T18:46:21.036Z,92.63
2022-11-15T18:48:52.561Z,92.92
2022-11-15T18:51:21.309Z,94.15
2022-11-15T18:53:47.984Z,93.10
2022-11-15T18:56:20.071Z,94.16
2022-11-15T18:58:59.109Z,94.79
2022-11-15T19:01:33.823Z,95.35
2022-11-15T19:04:07.522Z,95.22
2022-11-15T19:06:37.726Z,95.63
2022-11-15T19:09:04.230Z,96.20
2022-11-15T19:11:35.681Z,96.55
2022-11-15T19:14:07.935Z,96.80
2022-11-15T19:16:37.421Z,96.57
2022-11-15T19:19:06.976Z,98.44
2022-11-15T19:21:34.420Z,98.78
2022-11-15T19:24:01.418Z,99.13
2022-11-15T19:26:29.155Z,99.00
2022-11-15T19:29:00.847Z,99.26
2022-11-15T19:31:29.630Z,99.15
2022-11-15T19:33:57.895Z,100.00
2022-11-15T19:36:27.722Z,100.00
2022-11-15T19:38:55.336Z,100.00
2022-11-15T19:41:23.935Z,99.28
2022-11-15T19:43:51.046Z,100.00
2022-11-15T19:46:20.490Z,100.00
2022-11-15T19:48:47.762Z,100.00
2022-11-15T19:51:19.192Z,99.81
2022-11-15T19:53:45.735Z,100.00
2022-11-15T19:56:14.526Z,100.00
2022-11-15T19:58:41.558Z,100.00
2022-11-15T20:01:18.236Z,100.00
2022-11-15T20:03:45.545Z,100.00
2022-11-15T20:06:17.474Z,100.00
2022-11-15T20:08:45.257Z,100.00
2022-11-15T20:11:13.050Z,100.00
2022-11-15T20:13:39.750Z,100.00
2022-11-15T20:16:06.774Z,100.00
2022-11-15T20:18:34.634Z,100.00
2022-11-15T20:21:02.718Z,100.00
2022-11-15T20:23:29.184Z,100.00
2022-11-15T20:25:55.817Z,100.00
2022-11-15T20:28:27.289Z,100.00
2022-11-15T20:30:56.332Z,100.00
2022-11-15T20:33:23.873Z,100.00
2022-11-15T20:35:50.706Z,100.00
2022-11-15T20:38:17.572Z,100.00
2022-11-15T20:40:50.442Z,100.00
2022-11-15T20:43:19.184Z,100.00
2022-11-15T20:45:47.354Z,100.00
2022-11-15T20:48:15.168Z,100.00
2022-11-15T20:50:43.608Z,100.00
2022-11-15T20:53:12.741Z,100.00
2022-11-15T20:55:41.414Z,100.00
2022-11-15T20:58:08.942Z,100.00
2022-11-15T21:00:37.036Z,100.00
2022-11-15T21:03:07.931Z,100.00
2022-11-15T21:05:37.480Z,100.00
2022-11-15T21:08:04.238Z,100.00
2022-11-15T21:10:49.123Z,100.00
2022-11-15T21:13:15.578Z,100.00
2022-11-15T21:15:42.028Z,100.00
2022-11-15T21:18:08.594Z,100.00
2022-11-15T21:20:35.096Z,100.00
2022-11-15T21:23:01.586Z,100.00
2022-11-15T21:25:28.059Z,100.00
2022-11-15T21:27:54.549Z,100.00
2022-11-15T21:30:21.542Z,100.00
2022-11-15T21:32:48.046Z,100.00
2022-11-15T21:35:14.575Z,100.00
2022-11-15T21:37:41.607Z,100.00
2022-11-15T21:40:08.681Z,100.00
2022-11-15T21:42:35.092Z,100.00
2022-11-15T21:45:01.696Z,100.00
2022-11-15T21:47:28.300Z,100.00
2022-11-15T21:49:54.770Z,100.00
2022-11-15T21:52:21.425Z,100.00
2022-11-15T21:54:47.932Z,100.00
2022-11-15T21:57:14.422Z,100.00
2022-11-15T22:00:00.820Z,100.00
2022-11-15T22:02:27.289Z,100.00
2022-11-15T22:04:53.736Z,100.00
2022-11-15T22:07:20.375Z,100.00
2022-11-15T22:09:46.999Z,100.00
2022-11-15T22:12:13.440Z,100.00
2022-11-15T22:14:39.884Z,100.00
2022-11-15T22:17:06.327Z,100.00
2022-11-15T22:19:32.828Z,100.00
2022-11-15T22:21:59.403Z,100.00
2022-11-15T22:24:25.965Z,100.00
2022-11-15T22:26:52.523Z,100.00
2022-11-15T22:29:19.047Z,100.00
2022-11-15T22:31:46.048Z,100.00
2022-11-15T22:34:12.561Z,100.00
2022-11-15T22:37:13.125Z,100.00
2022-11-15T22:39:30.388Z,100.00
2022-11-15T22:41:56.902Z,100.00
2022-11-15T22:44:23.427Z,100.00
2022-11-15T22:46:50.003Z,100.00
2022-11-15T22:49:16.496Z,100.00
2022-11-15T22:51:43.053Z,100.00
2022-11-15T22:54:09.581Z,100.00
2022-11-15T22:56:36.080Z,100.00
2022-11-15T22:59:02.704Z,100.00
2022-11-15T23:01:29.341Z,100.00
2022-11-15T23:03:55.968Z,100.00
2022-11-15T23:06:22.575Z,100.00
2022-11-15T23:08:49.104Z,100.00
2022-11-15T23:11:34.020Z,100.00
2022-11-15T23:14:00.534Z,100.00
2022-11-15T23:16:34.297Z,100.00
2022-11-15T23:19:06.504Z,100.00
2022-11-15T23:21:56.552Z,100.00
2022-11-15T23:24:23.980Z,100.00
2022-11-15T23:26:56.294Z,100.00
2022-11-15T23:29:24.962Z,100.00
2022-11-15T23:32:11.106Z,100.00
2022-11-15T23:34:40.566Z,100.00
2022-11-15T23:37:08.861Z,100.00
2022-11-15T23:39:35.392Z,100.00
2022-11-15T23:42:07.537Z,100.00
2022-11-15T23:44:35.473Z,100.00
2022-11-15T23:47:02.106Z,100.00
2022-11-15T23:49:28.596Z,100.00
2022-11-15T23:51:55.314Z,100.00
2022-11-15T23:54:21.820Z,100.00
2022-11-15T23:56:48.365Z,100.00
2022-11-15T23:59:14.906Z,100.00
